createdAt,value
2023-01-06T00:01:52.546Z,11.60
2023-01-06T00:05:58.428Z,11.60
2023-01-06T00:09:59.948Z,11.63
2023-01-06T00:14:01.677Z,11.64
2023-01-06T00:18:03.287Z,11.63
2023-01-06T00:22:05.926Z,11.63
2023-01-06T00:26:09.440Z,11.63
2023-01-06T00:30:11.621Z,11.62
2023-01-06T00:34:13.305Z,11.59
2023-01-06T00:38:15.694Z,11.54
2023-01-06T00:42:17.218Z,11.51
2023-01-06T00:46:19.158Z,11.53
2023-01-06T00:50:20.874Z,11.54
2023-01-06T00:54:22.760Z,11.56
2023-01-06T00:58:24.299Z,11.57
2023-01-06T01:02:26.031Z,11.59
2023-01-06T01:06:27.972Z,11.62
2023-01-06T01:10:29.568Z,11.62
2023-01-06T01:14:31.190Z,11.60
2023-01-06T01:18:33.335Z,11.62
2023-01-06T01:22:35.136Z,11.60
2023-01-06T01:26:37.066Z,11.56
2023-01-06T01:30:38.627Z,11.53
2023-01-06T01:34:40.168Z,11.49
2023-01-06T01:38:41.882Z,11.46
2023-01-06T01:42:43.403Z,11.46
2023-01-06T01:46:45.002Z,11.46
2023-01-06T01:50:51.814Z,11.46
2023-01-06T01:54:54.990Z,11.44
2023-01-06T01:59:12.864Z,11.38
2023-01-06T02:03:15.545Z,11.35
2023-01-06T02:07:18.152Z,11.35
2023-01-06T02:11:19.776Z,11.38
2023-01-06T02:15:30.275Z,11.42
2023-01-06T02:20:03.496Z,11.44
2023-01-06T02:24:26.240Z,11.45
2023-01-06T02:28:53.279Z,11.46
2023-01-06T02:33:18.621Z,11.49
2023-01-06T02:37:48.416Z,11.49
2023-01-06T02:42:12.609Z,11.48
2023-01-06T02:46:42.288Z,11.48
2023-01-06T02:50:56.642Z,11.48
2023-01-06T02:55:11.653Z,11.49
2023-01-06T02:59:30.216Z,11.49
2023-01-06T03:03:35.627Z,11.46
2023-01-06T03:07:39.368Z,11.44
2023-01-06T03:11:44.201Z,11.39
2023-01-06T03:15:45.951Z,11.35
2023-01-06T03:19:47.702Z,11.33
2023-01-06T03:23:50.205Z,11.33
2023-01-06T03:27:51.926Z,11.31
2023-01-06T03:32:32.790Z,11.31
2023-01-06T03:36:54.731Z,11.28
2023-01-06T03:41:23.474Z,11.30
2023-01-06T03:45:50.686Z,11.31
2023-01-06T03:50:00.492Z,11.35
2023-01-06T03:54:15.764Z,11.33
2023-01-06T03:58:20.158Z,11.33
2023-01-06T04:02:23.963Z,11.35
2023-01-06T04:06:26.009Z,11.33
2023-01-06T04:10:28.274Z,11.31
2023-01-06T04:14:32.615Z,11.28
2023-01-06T04:18:36.339Z,11.24
2023-01-06T04:22:38.127Z,11.23
2023-01-06T04:26:40.043Z,11.23
2023-01-06T04:30:42.345Z,11.24
2023-01-06T04:34:45.130Z,11.23
2023-01-06T04:38:48.179Z,11.21
2023-01-06T04:43:04.783Z,11.19
2023-01-06T04:47:06.353Z,11.20
2023-01-06T04:51:09.825Z,11.20
2023-01-06T04:55:11.662Z,11.19
2023-01-06T04:59:13.187Z,11.20
2023-01-06T05:03:14.805Z,11.16
2023-01-06T05:07:16.369Z,11.17
2023-01-06T05:11:21.021Z,11.16
2023-01-06T05:15:22.767Z,11.16
2023-01-06T05:19:24.364Z,11.16
2023-01-06T05:23:25.963Z,11.13
2023-01-06T05:27:27.500Z,11.16
2023-01-06T05:31:29.116Z,11.16
2023-01-06T05:35:30.933Z,11.17
2023-01-06T05:39:32.488Z,11.17
2023-01-06T05:43:36.021Z,11.16
2023-01-06T05:47:37.651Z,11.19
2023-01-06T05:51:39.245Z,11.17
2023-01-06T05:55:40.809Z,11.17
2023-01-06T05:59:42.356Z,11.19
2023-01-06T06:03:44.056Z,11.19
2023-01-06T06:07:51.951Z,11.19
2023-01-06T06:11:54.638Z,11.20
2023-01-06T06:16:11.528Z,11.23
2023-01-06T06:20:13.103Z,11.23
2023-01-06T06:24:14.738Z,11.23
2023-01-06T06:28:16.269Z,11.21
2023-01-06T06:32:17.810Z,11.23
2023-01-06T06:36:19.551Z,11.21
2023-01-06T06:40:21.176Z,11.19
2023-01-06T06:44:22.719Z,11.21
2023-01-06T06:48:24.359Z,11.21
2023-01-06T06:52:25.861Z,11.21
2023-01-06T06:56:27.532Z,11.21
2023-01-06T07:00:29.195Z,11.20
2023-01-06T07:04:30.985Z,11.13
2023-01-06T07:08:35.391Z,11.16
2023-01-06T07:12:36.928Z,11.12
2023-01-06T07:16:38.520Z,11.12
2023-01-06T07:20:40.165Z,11.12
2023-01-06T07:24:41.659Z,11.12
2023-01-06T07:28:43.170Z,11.12
2023-01-06T07:32:44.765Z,11.12
2023-01-06T07:36:46.354Z,11.13
2023-01-06T07:40:48.132Z,11.12
2023-01-06T07:44:49.676Z,11.09
2023-01-06T07:48:51.207Z,11.11
2023-01-06T07:52:52.822Z,11.09
2023-01-06T07:56:54.616Z,11.12
2023-01-06T08:00:56.168Z,11.16
2023-01-06T08:04:59.510Z,11.20
2023-01-06T08:09:02.169Z,11.24
2023-01-06T08:13:03.682Z,11.28
2023-01-06T08:17:05.480Z,11.33
2023-01-06T08:21:09.401Z,11.38
2023-01-06T08:25:10.999Z,11.44
2023-01-06T08:29:12.580Z,11.46
2023-01-06T08:33:14.880Z,11.48
2023-01-06T08:37:16.533Z,11.51
2023-01-06T08:41:18.243Z,11.53
2023-01-06T08:45:19.815Z,11.56
2023-01-06T08:49:21.459Z,11.59
2023-01-06T08:53:23.045Z,11.60
2023-01-06T08:57:24.638Z,11.59
2023-01-06T09:01:29.294Z,11.59
2023-01-06T09:05:30.922Z,11.62
2023-01-06T09:09:32.742Z,11.66
2023-01-06T09:13:35.343Z,11.66
2023-01-06T09:17:37.051Z,11.78
2023-01-06T09:21:38.727Z,11.85
2023-01-06T09:25:40.329Z,11.94
2023-01-06T09:29:41.978Z,12.03
2023-01-06T09:33:43.707Z,12.11
2023-01-06T09:37:45.476Z,12.15
2023-01-06T09:41:53.102Z,12.13
2023-01-06T09:46:01.504Z,12.16
2023-01-06T09:50:17.307Z,12.18
2023-01-06T09:54:24.174Z,12.18
2023-01-06T09:58:32.871Z,12.23
2023-01-06T10:02:39.773Z,12.26
2023-01-06T10:06:49.476Z,12.31
2023-01-06T10:11:02.693Z,12.29
2023-01-06T10:15:48.557Z,12.34
2023-01-06T10:20:13.011Z,12.37
2023-01-06T10:24:31.432Z,12.41
2023-01-06T10:28:39.078Z,12.36
2023-01-06T10:32:42.839Z,12.37
2023-01-06T10:36:46.771Z,12.34
2023-01-06T10:40:48.603Z,12.33
2023-01-06T10:44:50.176Z,12.33
2023-01-06T10:48:52.506Z,12.34
2023-01-06T10:52:54.221Z,12.36
2023-01-06T10:57:00.929Z,12.31
2023-01-06T11:01:10.466Z,12.29
2023-01-06T11:05:17.486Z,12.25
2023-01-06T11:09:39.316Z,12.21
2023-01-06T11:13:46.199Z,12.29
2023-01-06T11:17:48.579Z,12.36
2023-01-06T11:21:50.299Z,12.43
2023-01-06T11:26:02.591Z,12.48
2023-01-06T11:30:37.932Z,12.55
2023-01-06T11:34:43.874Z,12.55
2023-01-06T11:38:52.092Z,12.54
2023-01-06T11:42:56.331Z,12.56
2023-01-06T11:47:08.602Z,12.54
2023-01-06T11:51:10.525Z,12.52
2023-01-06T11:55:13.510Z,12.48
2023-01-06T11:59:15.400Z,12.41
2023-01-06T12:03:21.343Z,12.40
2023-01-06T12:07:40.825Z,12.41
2023-01-06T12:11:47.104Z,12.41
2023-01-06T12:15:57.957Z,12.44
2023-01-06T12:20:05.874Z,12.54
2023-01-06T12:24:12.422Z,12.62
2023-01-06T12:28:17.607Z,12.69
2023-01-06T12:32:23.168Z,12.77
2023-01-06T12:36:37.730Z,12.76
2023-01-06T12:40:58.723Z,12.77
2023-01-06T12:45:15.142Z,12.76
2023-01-06T12:49:31.720Z,12.74
2023-01-06T12:53:41.580Z,12.70
2023-01-06T12:57:53.353Z,12.74
2023-01-06T13:02:13.820Z,12.66
2023-01-06T13:06:27.161Z,12.69
2023-01-06T13:10:39.690Z,12.69
2023-01-06T13:15:13.814Z,12.62
2023-01-06T13:19:34.116Z,12.61
2023-01-06T13:24:13.044Z,12.59
2023-01-06T13:28:42.446Z,12.63
2023-01-06T13:33:15.068Z,12.67
2023-01-06T13:37:36.821Z,12.66
2023-01-06T13:41:40.568Z,12.61
2023-01-06T13:45:48.494Z,12.54
2023-01-06T13:49:50.518Z,12.51
2023-01-06T13:53:54.651Z,12.48
2023-01-06T13:57:58.889Z,12.46
2023-01-06T14:02:00.544Z,12.46
2023-01-06T14:06:03.638Z,12.44
2023-01-06T14:10:27.976Z,12.38
2023-01-06T14:14:32.907Z,12.37
2023-01-06T14:18:51.660Z,12.34
2023-01-06T14:23:21.267Z,12.33
2023-01-06T14:27:47.710Z,12.30
2023-01-06T14:31:49.511Z,12.29
2023-01-06T14:36:00.343Z,12.29
2023-01-06T14:40:02.238Z,12.25
2023-01-06T14:44:11.907Z,12.21
2023-01-06T14:48:18.058Z,12.19
2023-01-06T14:52:22.948Z,12.13
2023-01-06T14:56:27.612Z,12.11
2023-01-06T15:00:33.296Z,12.11
2023-01-06T15:04:35.381Z,12.08
2023-01-06T15:08:36.960Z,12.07
2023-01-06T15:12:40.347Z,12.05
2023-01-06T15:16:45.695Z,12.04
2023-01-06T15:20:47.641Z,12.03
2023-01-06T15:24:49.320Z,12.00
2023-01-06T15:29:06.561Z,12.00
2023-01-06T15:33:11.819Z,11.97
2023-01-06T15:37:24.878Z,11.98
2023-01-06T15:41:32.646Z,11.98
2023-01-06T15:45:35.121Z,12.00
2023-01-06T15:49:38.498Z,12.05
2023-01-06T15:53:40.044Z,12.15
2023-01-06T15:57:41.742Z,12.16
2023-01-06T16:02:03.079Z,12.15
2023-01-06T16:06:23.875Z,12.12
2023-01-06T16:10:38.552Z,12.15
2023-01-06T16:14:43.828Z,12.13
2023-01-06T16:18:45.851Z,12.12
2023-01-06T16:22:51.460Z,11.94
2023-01-06T16:27:02.593Z,11.85
2023-01-06T16:31:12.855Z,11.79
2023-01-06T16:35:20.311Z,11.70
2023-01-06T16:39:21.895Z,11.67
2023-01-06T16:43:23.425Z,11.62
2023-01-06T16:47:24.985Z,11.62
2023-01-06T16:51:28.723Z,11.63
2023-01-06T16:55:30.306Z,11.64
2023-01-06T16:59:35.206Z,11.63
2023-01-06T17:03:37.956Z,11.64
2023-01-06T17:07:39.551Z,11.60
2023-01-06T17:11:41.191Z,11.62
2023-01-06T17:15:42.821Z,11.62
2023-01-06T17:19:44.382Z,11.59
2023-01-06T17:23:47.697Z,11.59
2023-01-06T17:27:49.233Z,11.60
2023-01-06T17:31:54.958Z,11.57
2023-01-06T17:35:56.715Z,11.62
2023-01-06T17:39:58.545Z,11.62
2023-01-06T17:44:01.447Z,11.60
2023-01-06T17:48:09.330Z,11.59
2023-01-06T17:52:13.727Z,11.59
2023-01-06T17:56:15.512Z,11.57
2023-01-06T18:00:17.523Z,11.57
2023-01-06T18:04:19.156Z,11.57
2023-01-06T18:08:21.460Z,11.54
2023-01-06T18:12:23.180Z,11.49
2023-01-06T18:16:29.767Z,11.45
2023-01-06T18:20:31.518Z,11.41
2023-01-06T18:24:37.254Z,11.41
2023-01-06T18:28:38.879Z,11.39
2023-01-06T18:32:42.307Z,11.35
2023-01-06T18:36:45.212Z,11.33
2023-01-06T18:40:46.792Z,11.31
2023-01-06T18:44:49.181Z,11.38
2023-01-06T18:48:50.793Z,11.36
2023-01-06T18:52:54.099Z,11.35
2023-01-06T18:56:55.842Z,11.39
2023-01-06T19:01:00.350Z,11.39
2023-01-06T19:05:09.427Z,11.39
2023-01-06T19:09:20.171Z,11.41
2023-01-06T19:13:27.852Z,11.44
2023-01-06T19:17:37.001Z,11.42
2023-01-06T19:21:38.724Z,11.46
2023-01-06T19:25:46.778Z,11.44
2023-01-06T19:29:48.392Z,11.46
2023-01-06T19:34:00.661Z,11.42
2023-01-06T19:38:17.641Z,11.44
2023-01-06T19:42:26.827Z,11.42
2023-01-06T19:46:29.935Z,11.44
2023-01-06T19:50:31.619Z,11.42
2023-01-06T19:54:39.696Z,11.41
2023-01-06T19:58:41.447Z,11.39
2023-01-06T20:02:45.306Z,11.42
2023-01-06T20:06:47.170Z,11.41
2023-01-06T20:10:48.855Z,11.41
2023-01-06T20:14:50.429Z,11.39
2023-01-06T20:18:52.060Z,11.39
2023-01-06T20:22:53.690Z,11.39
2023-01-06T20:26:55.441Z,11.39
2023-01-06T20:30:57.007Z,11.35
2023-01-06T20:34:58.637Z,11.30
2023-01-06T20:39:00.763Z,11.30
2023-01-06T20:43:02.417Z,11.28
2023-01-06T20:47:04.032Z,11.28
2023-01-06T20:51:05.772Z,11.26
2023-01-06T20:55:08.116Z,11.23
2023-01-06T20:59:12.331Z,11.21
2023-01-06T21:03:13.982Z,11.20
2023-01-06T21:07:15.572Z,11.19
2023-01-06T21:11:17.107Z,11.20
2023-01-06T21:15:18.953Z,11.17
2023-01-06T21:19:20.596Z,11.13
2023-01-06T21:23:22.159Z,11.12
2023-01-06T21:27:23.983Z,11.08
2023-01-06T21:31:25.527Z,10.99
2023-01-06T21:35:27.164Z,10.91
2023-01-06T21:39:28.838Z,10.91
2023-01-06T21:43:30.501Z,10.91
2023-01-06T21:47:32.178Z,10.94
2023-01-06T21:51:34.969Z,10.95
2023-01-06T21:55:36.987Z,10.99
2023-01-06T21:59:38.690Z,10.99
2023-01-06T22:03:40.301Z,10.95
2023-01-06T22:07:46.656Z,10.91
2023-01-06T22:11:48.738Z,10.90
2023-01-06T22:15:50.766Z,10.90
2023-01-06T22:19:54.394Z,10.90
2023-01-06T22:23:57.073Z,10.94
2023-01-06T22:27:58.753Z,10.94
2023-01-06T22:32:04.587Z,10.91
2023-01-06T22:36:07.084Z,10.94
2023-01-06T22:40:10.294Z,10.94
2023-01-06T22:44:11.905Z,10.93
2023-01-06T22:48:13.439Z,10.91
2023-01-06T22:52:16.225Z,10.90
2023-01-06T22:56:17.826Z,10.87
2023-01-06T23:00:19.471Z,10.90
2023-01-06T23:04:21.021Z,10.90
2023-01-06T23:08:22.898Z,10.93
2023-01-06T23:12:24.457Z,10.91
2023-01-06T23:16:26.868Z,10.93
2023-01-06T23:20:28.867Z,10.94
2023-01-06T23:24:30.426Z,10.95
2023-01-06T23:28:32.501Z,10.94
2023-01-06T23:32:34.140Z,10.94
2023-01-06T23:36:36.944Z,10.93
2023-01-06T23:40:38.655Z,10.94
2023-01-06T23:44:40.234Z,10.93
2023-01-06T23:48:42.581Z,10.90
2023-01-06T23:52:44.128Z,10.90
2023-01-06T23:56:45.681Z,10.88
